Time;durP1;ratioP1;P1;durP2;ratioP2;P2;SDS_P1;SDS_P2;PMS_P1;PMS_P2;Temp;Humidity;BMP_temperature;BMP_pressure;BME280_temperature;BME280_humidity;BME280_pressure;Samples;Min_cycle;Max_cycle;Signal;HPM_P1;HPM_P2
2022/10/10 00:02:15;;;;;;;33.90;23.67;;;;;;;;;;4943252;29;20055;-76
2022/10/10 00:05:00;;;;;;;36.88;25.02;;;;;;;;;;4937500;29;20043;-76
2022/10/10 00:07:46;;;;;;;29.98;21.98;;;;;;;;;;4937445;29;20052;-74
2022/10/10 00:10:32;;;;;;;35.47;22.25;;;;;;;;;;4943795;29;20060;-76
2022/10/10 00:13:18;;;;;;;31.15;22.55;;;;;;;;;;4937453;29;20043;-76
2022/10/10 00:16:04;;;;;;;31.25;21.70;;;;;;;;;;4937364;29;20406;-76
2022/10/10 00:18:51;;;;;;;31.33;20.33;;;;;;;;;;4937605;29;20044;-76
2022/10/10 00:21:36;;;;;;;28.23;22.73;;;;;;;;;;4937064;29;20044;-77
2022/10/10 00:24:21;;;;;;;30.85;21.50;;;;;;;;;;4937699;29;20059;-76
2022/10/10 00:27:07;;;;;;;28.95;20.92;;;;;;;;;;4943621;29;20055;-75
2022/10/10 00:29:52;;;;;;;28.58;20.55;;;;;;;;;;4942706;29;20390;-76
2022/10/10 00:32:38;;;;;;;25.13;19.40;;;;;;;;;;4936776;29;20051;-75
2022/10/10 00:35:24;;;;;;;24.00;19.45;;;;;;;;;;4943219;29;20047;-77
2022/10/10 00:38:12;;;;;;;28.63;20.00;;;;;;;;;;4943447;29;20482;-75
2022/10/10 00:40:58;;;;;;;34.92;22.45;;;;;;;;;;4937079;29;20047;-75
2022/10/10 00:44:07;;;;;;;33.72;24.60;;;;;;;;;;4936682;29;20052;-76
2022/10/10 00:46:52;;;;;;;33.15;21.75;;;;;;;;;;4936652;29;20494;-77
2022/10/10 00:49:42;;;;;;;30.58;22.10;;;;;;;;;;4936504;29;20052;-77
2022/10/10 00:52:28;;;;;;;31.45;23.35;;;;;;;;;;4943338;29;20043;-77
2022/10/10 00:55:15;;;;;;;34.83;22.70;;;;;;;;;;4943089;29;20040;-77
2022/10/10 00:58:02;;;;;;;32.83;23.30;;;;;;;;;;4937441;29;20052;-76
2022/10/10 01:00:48;;;;;;;34.25;23.15;;;;;;;;;;4942760;29;20051;-78
2022/10/10 01:03:34;;;;;;;29.98;22.77;;;;;;;;;;4936240;29;20052;-75
2022/10/10 01:06:19;;;;;;;28.90;22.08;;;;;;;;;;4942950;29;20040;-75
2022/10/10 01:09:05;;;;;;;32.40;23.52;;;;;;;;;;4935137;29;20051;-75
2022/10/10 01:12:13;;;;;;;32.13;22.77;;;;;;;;;;4935829;29;20047;-77
2022/10/10 01:15:02;;;;;;;33.97;22.23;;;;;;;;;;4905055;29;20060;-77
2022/10/10 01:17:58;;;;;;;32.38;21.15;;;;;;;;;;4936416;29;20060;-76
2022/10/10 01:20:46;;;;;;;27.85;20.85;;;;;;;;;;4936674;29;20048;-75
2022/10/10 01:24:07;;;;;;;30.08;20.30;;;;;;;;;;4936097;29;20546;-77
2022/10/10 01:27:07;;;;;;;38.92;25.23;;;;;;;;;;4932297;29;20051;-76
2022/10/10 01:30:11;;;;;;;36.70;23.42;;;;;;;;;;4935843;29;20048;-76
2022/10/10 01:33:07;;;;;;;47.08;26.15;;;;;;;;;;4935609;29;20048;-77
2022/10/10 01:35:58;;;;;;;40.58;24.27;;;;;;;;;;4936079;29;20036;-76
2022/10/10 01:39:05;;;;;;;40.45;25.77;;;;;;;;;;4931178;29;20052;-77
2022/10/10 01:41:59;;;;;;;;;;;;;;;;;;4935786;29;20051;-77
2022/10/10 01:44:47;;;;;;;51.67;28.80;;;;;;;;;;4936510;29;20356;-76
2022/10/10 01:47:33;;;;;;;55.15;30.70;;;;;;;;;;4936351;29;20048;-77
2022/10/10 01:50:22;;;;;;;96.75;37.13;;;;;;;;;;4936062;29;20043;-76
2022/10/10 01:53:14;;;;;;;119.90;39.60;;;;;;;;;;4936388;29;20482;-76
2022/10/10 01:56:11;;;;;;;74.07;37.50;;;;;;;;;;4936323;29;20043;-76
2022/10/10 01:59:14;;;;;;;78.57;39.85;;;;;;;;;;4935023;29;20043;-77
2022/10/10 02:02:37;;;;;;;80.68;38.63;;;;;;;;;;4942704;29;20056;-76
2022/10/10 02:05:32;;;;;;;74.93;38.38;;;;;;;;;;4936144;29;20051;-77
2022/10/10 02:08:43;;;;;;;75.25;38.60;;;;;;;;;;4935996;29;20087;-76
2022/10/10 02:11:34;;;;;;;68.32;36.63;;;;;;;;;;4943104;29;20051;-76
2022/10/10 02:14:22;;;;;;;62.35;37.67;;;;;;;;;;4942572;29;20401;-76
2022/10/10 02:17:11;;;;;;;69.63;37.75;;;;;;;;;;4935934;29;20048;-76
2022/10/10 02:19:58;;;;;;;63.83;36.90;;;;;;;;;;4936062;29;20044;-77
2022/10/10 02:22:45;;;;;;;70.95;35.05;;;;;;;;;;4937350;29;20043;-77
2022/10/10 02:25:35;;;;;;;65.50;34.40;;;;;;;;;;4939677;29;20043;-76
2022/10/10 02:28:28;;;;;;;64.75;32.63;;;;;;;;;;4938495;29;20035;-76
2022/10/10 02:31:26;;;;;;;73.50;33.72;;;;;;;;;;4938966;29;20408;-77
2022/10/10 02:34:15;;;;;;;70.20;32.92;;;;;;;;;;4939331;29;20047;-77
2022/10/10 02:37:05;;;;;;;58.67;32.60;;;;;;;;;;4939122;29;20418;-77
2022/10/10 02:39:59;;;;;;;65.18;33.90;;;;;;;;;;4939235;29;20052;-77
2022/10/10 02:42:46;;;;;;;83.45;33.83;;;;;;;;;;4939006;29;20047;-77
2022/10/10 02:45:32;;;;;;;86.25;35.80;;;;;;;;;;4945397;29;20459;-77
2022/10/10 02:48:17;;;;;;;91.30;35.72;;;;;;;;;;4938991;29;20048;-77
2022/10/10 02:51:03;;;;;;;90.88;35.00;;;;;;;;;;4940262;29;20060;-76
2022/10/10 02:53:49;;;;;;;112.97;33.30;;;;;;;;;;4939072;29;20397;-76
2022/10/10 02:56:34;;;;;;;76.13;34.03;;;;;;;;;;4945080;29;20056;-78
2022/10/10 02:59:20;;;;;;;87.95;33.28;;;;;;;;;;4939199;29;20397;-77
2022/10/10 03:02:06;;;;;;;123.93;35.42;;;;;;;;;;4944183;29;20405;-78
2022/10/10 03:04:51;;;;;;;112.22;34.80;;;;;;;;;;4938960;29;20048;-76
2022/10/10 03:07:37;;;;;;;92.85;36.03;;;;;;;;;;4938728;29;20489;-77
2022/10/10 03:10:22;;;;;;;75.88;33.72;;;;;;;;;;4938784;29;20434;-76
2022/10/10 03:13:08;;;;;;;83.80;33.88;;;;;;;;;;4945340;29;20047;-77
2022/10/10 03:15:54;;;;;;;95.07;35.85;;;;;;;;;;4944676;29;20047;-77
2022/10/10 03:18:39;;;;;;;71.55;34.90;;;;;;;;;;4938378;29;20405;-76
2022/10/10 03:21:25;;;;;;;54.97;34.42;;;;;;;;;;4944695;29;20043;-76
2022/10/10 03:24:10;;;;;;;68.35;36.38;;;;;;;;;;4944734;29;20410;-75
2022/10/10 03:26:56;;;;;;;64.90;37.08;;;;;;;;;;4938399;29;20044;-75
2022/10/10 03:29:41;;;;;;;81.40;37.65;;;;;;;;;;4944701;29;20055;-76
2022/10/10 03:32:27;;;;;;;71.95;38.58;;;;;;;;;;4938309;29;20047;-76
2022/10/10 03:35:13;;;;;;;68.93;36.50;;;;;;;;;;4937352;29;20397;-77
2022/10/10 03:37:59;;;;;;;90.85;36.30;;;;;;;;;;4937952;29;20044;-77
2022/10/10 03:40:45;;;;;;;73.80;33.80;;;;;;;;;;4938238;29;20039;-76
2022/10/10 03:43:31;;;;;;;112.57;59.70;;;;;;;;;;4938292;29;20044;-76
2022/10/10 03:46:16;;;;;;;99.15;40.70;;;;;;;;;;4938213;29;20047;-76
2022/10/10 03:49:02;;;;;;;61.83;31.73;;;;;;;;;;4937657;29;20044;-77
2022/10/10 03:51:47;;;;;;;84.40;35.25;;;;;;;;;;4938026;29;20051;-77
2022/10/10 03:54:33;;;;;;;115.00;51.40;;;;;;;;;;4944110;29;20051;-77
2022/10/10 03:57:18;;;;;;;96.03;38.13;;;;;;;;;;4937799;29;20059;-76
2022/10/10 04:00:04;;;;;;;134.43;38.88;;;;;;;;;;4938350;29;20051;-75
2022/10/10 04:02:52;;;;;;;110.28;39.00;;;;;;;;;;4937611;29;20047;-75
2022/10/10 04:05:38;;;;;;;92.03;46.53;;;;;;;;;;4937423;29;20052;-77
2022/10/10 04:08:24;;;;;;;104.75;40.83;;;;;;;;;;4938158;29;20047;-75
2022/10/10 04:11:09;;;;;;;77.95;39.90;;;;;;;;;;4937460;29;20484;-77
2022/10/10 04:13:55;;;;;;;134.63;39.13;;;;;;;;;;4943716;29;20389;-75
2022/10/10 04:16:40;;;;;;;79.18;38.65;;;;;;;;;;4943299;29;20047;-76
2022/10/10 04:19:26;;;;;;;100.45;38.70;;;;;;;;;;4943784;29;20044;-75
2022/10/10 04:22:13;;;;;;;88.47;39.08;;;;;;;;;;4937255;29;20044;-76
2022/10/10 04:24:58;;;;;;;86.00;39.13;;;;;;;;;;4937067;29;20060;-78
2022/10/10 04:27:44;;;;;;;88.95;40.65;;;;;;;;;;4937009;29;20048;-77
2022/10/10 04:30:32;;;;;;;65.30;36.47;;;;;;;;;;4942665;29;20052;-75
2022/10/10 04:33:17;;;;;;;76.88;40.65;;;;;;;;;;4937171;29;20048;-75
2022/10/10 04:36:03;;;;;;;74.13;37.33;;;;;;;;;;4936904;29;20052;-76
2022/10/10 04:38:48;;;;;;;79.88;39.03;;;;;;;;;;4936475;29;20048;-76
2022/10/10 04:41:34;;;;;;;76.15;35.85;;;;;;;;;;4936798;29;20044;-77
2022/10/10 04:44:19;;;;;;;80.95;37.60;;;;;;;;;;4943393;29;20047;-77
2022/10/10 04:47:06;;;;;;;87.18;35.88;;;;;;;;;;4935330;29;20043;-76
2022/10/10 04:49:50;;;;;;;78.50;37.92;;;;;;;;;;4941400;29;20047;-76
2022/10/10 04:52:35;;;;;;;84.57;36.72;;;;;;;;;;4937184;29;20490;-76
2022/10/10 04:55:20;;;;;;;91.13;35.92;;;;;;;;;;4936667;29;20478;-76
2022/10/10 04:58:06;;;;;;;67.25;34.17;;;;;;;;;;4936535;29;20481;-77
2022/10/10 05:00:53;;;;;;;80.75;33.05;;;;;;;;;;4936519;29;20047;-75
2022/10/10 05:03:38;;;;;;;87.53;34.45;;;;;;;;;;4936823;29;20501;-76
2022/10/10 05:06:24;;;;;;;116.68;35.92;;;;;;;;;;4936766;29;20482;-75
2022/10/10 05:09:09;;;;;;;86.65;35.30;;;;;;;;;;4936214;29;20055;-76
2022/10/10 05:11:55;;;;;;;123.65;38.28;;;;;;;;;;4936439;29;20047;-75
2022/10/10 05:14:41;;;;;;;75.35;37.70;;;;;;;;;;4936253;29;20410;-75
2022/10/10 05:17:26;;;;;;;78.50;36.20;;;;;;;;;;4936424;29;20394;-75
2022/10/10 05:20:12;;;;;;;99.22;37.80;;;;;;;;;;4942849;29;20044;-75
2022/10/10 05:22:58;;;;;;;100.45;46.72;;;;;;;;;;4935742;29;20051;-75
2022/10/10 05:25:47;;;;;;;126.68;61.55;;;;;;;;;;4936770;29;20048;-77
2022/10/10 05:28:34;;;;;;;95.72;39.25;;;;;;;;;;4935828;29;20040;-77
2022/10/10 05:31:19;;;;;;;68.22;37.15;;;;;;;;;;4941704;29;20052;-75
2022/10/10 05:34:05;;;;;;;81.32;38.70;;;;;;;;;;4936063;29;20036;-75
2022/10/10 05:36:50;;;;;;;85.55;40.03;;;;;;;;;;4935640;29;20052;-75
2022/10/10 05:39:36;;;;;;;89.53;38.60;;;;;;;;;;4936280;29;20052;-76
2022/10/10 05:42:22;;;;;;;88.57;41.67;;;;;;;;;;4942390;29;20043;-75
2022/10/10 05:45:07;;;;;;;86.38;42.50;;;;;;;;;;4936359;29;20056;-76
2022/10/10 05:47:53;;;;;;;99.30;45.90;;;;;;;;;;4936633;29;20048;-77
2022/10/10 05:50:40;;;;;;;86.20;43.80;;;;;;;;;;4935577;29;20052;-76
2022/10/10 05:53:26;;;;;;;85.85;41.83;;;;;;;;;;4935983;29;20051;-76
2022/10/10 05:56:14;;;;;;;82.70;39.55;;;;;;;;;;4936353;29;20048;-76
2022/10/10 05:58:59;;;;;;;79.22;40.08;;;;;;;;;;4945932;29;20409;-75
2022/10/10 06:01:44;;;;;;;71.22;37.35;;;;;;;;;;4938733;29;20048;-75
2022/10/10 06:04:29;;;;;;;83.43;37.17;;;;;;;;;;4938661;29;20061;-76
2022/10/10 06:07:15;;;;;;;70.38;36.08;;;;;;;;;;4945934;29;20052;-75
2022/10/10 06:10:00;;;;;;;54.25;34.38;;;;;;;;;;4939458;29;20044;-75
2022/10/10 06:12:46;;;;;;;65.85;34.65;;;;;;;;;;4945333;29;20048;-75
2022/10/10 06:15:32;;;;;;;62.90;33.95;;;;;;;;;;4939498;29;20047;-76
2022/10/10 06:18:17;;;;;;;66.20;37.95;;;;;;;;;;4945389;29;20398;-76
2022/10/10 06:21:05;;;;;;;73.82;31.83;;;;;;;;;;4939276;29;20051;-76
2022/10/10 06:23:50;;;;;;;57.22;34.60;;;;;;;;;;4939423;29;20483;-75
2022/10/10 06:26:36;;;;;;;52.88;33.90;;;;;;;;;;4938760;29;20047;-76
2022/10/10 06:29:22;;;;;;;59.97;35.95;;;;;;;;;;4939048;29;20048;-75
2022/10/10 06:32:07;;;;;;;63.63;38.00;;;;;;;;;;4939029;29;20044;-75
2022/10/10 06:34:53;;;;;;;61.40;38.08;;;;;;;;;;4945395;29;20051;-76
2022/10/10 06:37:38;;;;;;;64.90;36.30;;;;;;;;;;4938956;29;20048;-77
2022/10/10 06:40:24;;;;;;;59.72;37.38;;;;;;;;;;4938600;29;20051;-77
2022/10/10 06:43:11;;;;;;;60.28;37.72;;;;;;;;;;4939282;29;20044;-76
2022/10/10 06:45:58;;;;;;;80.00;36.50;;;;;;;;;;4938911;29;20044;-76
2022/10/10 06:48:44;;;;;;;63.40;37.72;;;;;;;;;;4938262;29;20416;-75
2022/10/10 06:51:29;;;;;;;67.82;38.08;;;;;;;;;;4938390;29;20055;-77
2022/10/10 06:54:15;;;;;;;55.67;35.17;;;;;;;;;;4938740;29;20493;-75
2022/10/10 06:57:00;;;;;;;59.05;36.28;;;;;;;;;;4938615;29;20047;-75
2022/10/10 06:59:46;;;;;;;57.33;34.28;;;;;;;;;;4938626;29;20048;-76
2022/10/10 07:02:31;;;;;;;59.75;35.00;;;;;;;;;;4944512;29;20051;-76
2022/10/10 07:05:17;;;;;;;48.63;32.80;;;;;;;;;;4938246;29;20044;-76
2022/10/10 07:08:01;;;;;;;50.13;30.33;;;;;;;;;;4944682;29;20473;-77
2022/10/10 07:10:48;;;;;;;46.88;30.17;;;;;;;;;;4943984;29;20051;-76
2022/10/10 07:13:34;;;;;;;41.58;28.08;;;;;;;;;;4939111;29;20409;-74
2022/10/10 07:16:20;;;;;;;45.33;30.35;;;;;;;;;;4937980;29;20474;-76
2022/10/10 07:19:05;;;;;;;41.72;28.15;;;;;;;;;;4943671;29;20051;-75
2022/10/10 07:21:51;;;;;;;43.03;28.83;;;;;;;;;;4938146;29;20055;-76
2022/10/10 07:24:36;;;;;;;49.45;30.92;;;;;;;;;;4943189;29;20059;-76
2022/10/10 07:27:22;;;;;;;51.92;31.25;;;;;;;;;;4938047;29;20048;-76
2022/10/10 07:30:08;;;;;;;41.95;29.50;;;;;;;;;;4943673;29;20402;-75
2022/10/10 07:32:54;;;;;;;46.97;28.75;;;;;;;;;;4938023;29;20043;-75
2022/10/10 07:35:39;;;;;;;48.10;29.38;;;;;;;;;;4944290;29;20394;-76
2022/10/10 07:38:25;;;;;;;52.28;30.58;;;;;;;;;;4937490;29;20052;-75
2022/10/10 07:41:13;;;;;;;47.17;29.50;;;;;;;;;;4937782;29;20482;-75
2022/10/10 07:43:58;;;;;;;47.55;30.33;;;;;;;;;;4937537;29;20044;-74
2022/10/10 07:46:44;;;;;;;56.80;31.48;;;;;;;;;;4937291;29;20052;-74
2022/10/10 07:49:30;;;;;;;57.50;32.45;;;;;;;;;;4936989;29;20490;-74
2022/10/10 07:52:15;;;;;;;62.88;33.00;;;;;;;;;;4943575;29;20397;-74
2022/10/10 07:55:02;;;;;;;63.58;34.10;;;;;;;;;;4937656;29;20040;-74
2022/10/10 07:57:50;;;;;;;59.10;34.20;;;;;;;;;;4942522;29;20044;-74
2022/10/10 08:00:36;;;;;;;61.17;34.03;;;;;;;;;;4937738;29;20044;-75
2022/10/10 08:03:21;;;;;;;66.43;33.38;;;;;;;;;;4937793;29;20047;-76
2022/10/10 08:06:13;;;;;;;60.08;33.78;;;;;;;;;;4936991;29;20035;-76
2022/10/10 08:08:59;;;;;;;63.17;33.67;;;;;;;;;;4943929;29;20048;-75
2022/10/10 08:11:44;;;;;;;72.65;33.90;;;;;;;;;;4937910;29;20047;-75
2022/10/10 08:14:30;;;;;;;58.90;32.40;;;;;;;;;;4937080;29;20490;-75
2022/10/10 08:17:15;;;;;;;64.78;32.50;;;;;;;;;;4937018;29;20143;-75
2022/10/10 08:20:02;;;;;;;64.55;32.47;;;;;;;;;;4936588;29;20402;-75
2022/10/10 08:22:47;;;;;;;51.45;29.23;;;;;;;;;;4943689;29;20047;-75
2022/10/10 08:25:33;;;;;;;56.10;32.25;;;;;;;;;;4936924;29;20048;-74
2022/10/10 08:28:19;;;;;;;64.90;31.92;;;;;;;;;;4936511;29;20047;-74
2022/10/10 08:31:10;;;;;;;49.38;28.98;;;;;;;;;;4943117;29;20047;-74
2022/10/10 08:33:56;;;;;;;54.08;29.65;;;;;;;;;;4936564;29;20375;-74
2022/10/10 08:36:41;;;;;;;53.83;30.98;;;;;;;;;;4936816;29;20492;-75
2022/10/10 08:39:27;;;;;;;48.08;28.77;;;;;;;;;;4937052;29;20051;-74
2022/10/10 08:42:32;;;;;;;60.47;30.33;;;;;;;;;;4942294;29;20044;-74
2022/10/10 08:45:21;;;;;;;53.67;30.38;;;;;;;;;;4936591;29;20044;-75
2022/10/10 08:48:13;;;;;;;48.13;31.02;;;;;;;;;;4936142;29;20052;-74
2022/10/10 08:51:05;;;;;;;54.72;31.05;;;;;;;;;;4935807;29;20043;-75
2022/10/10 08:53:55;;;;;;;54.42;32.25;;;;;;;;;;4936331;29;20398;-76
2022/10/10 08:56:41;;;;;;;52.97;31.73;;;;;;;;;;4930679;29;20052;-76
2022/10/10 08:59:34;;;;;;;54.33;31.70;;;;;;;;;;4936186;29;20052;-75
2022/10/10 09:02:24;;;;;;;51.25;32.00;;;;;;;;;;4935873;29;20055;-76
2022/10/10 09:05:15;;;;;;;48.33;32.47;;;;;;;;;;4936290;29;20045;-76
2022/10/10 09:08:07;;;;;;;51.25;32.67;;;;;;;;;;4936406;29;20043;-75
2022/10/10 09:11:09;;;;;;;51.90;31.83;;;;;;;;;;4935437;29;20402;-76
2022/10/10 09:14:16;;;;;;;51.25;32.42;;;;;;;;;;4942507;29;20059;-75
2022/10/10 09:17:34;;;;;;;52.63;32.63;;;;;;;;;;4935782;29;20040;-76
2022/10/10 09:20:26;;;;;;;52.92;31.48;;;;;;;;;;4936322;29;20398;-75
2022/10/10 09:23:29;;;;;;;49.30;31.92;;;;;;;;;;4935909;29;20059;-76
2022/10/10 09:26:20;;;;;;;51.22;31.98;;;;;;;;;;4935933;29;20047;-73
2022/10/10 09:29:28;;;;;;;51.80;31.05;;;;;;;;;;4936061;29;20036;-74
2022/10/10 09:32:22;;;;;;;47.28;31.67;;;;;;;;;;4936151;29;20039;-73
2022/10/10 09:35:22;;;;;;;43.58;30.25;;;;;;;;;;4940461;29;20043;-73
2022/10/10 09:38:33;;;;;;;47.22;30.70;;;;;;;;;;4939868;29;20401;-76
2022/10/10 09:41:35;;;;;;;46.55;30.55;;;;;;;;;;4939709;29;20051;-74
2022/10/10 09:44:21;;;;;;;41.55;29.80;;;;;;;;;;4940110;29;20048;-74
2022/10/10 09:47:08;;;;;;;42.83;30.05;;;;;;;;;;4939747;29;20052;-73
2022/10/10 09:49:54;;;;;;;39.35;26.25;;;;;;;;;;4939768;29;20406;-74
2022/10/10 09:52:41;;;;;;;42.30;28.17;;;;;;;;;;4939360;29;20048;-73
2022/10/10 09:55:33;;;;;;;35.97;26.58;;;;;;;;;;4939775;29;20048;-74
2022/10/10 09:58:25;;;;;;;37.67;25.70;;;;;;;;;;4939669;29;20048;-73
2022/10/10 10:01:22;;;;;;;33.97;23.42;;;;;;;;;;4939175;29;20405;-74
2022/10/10 10:04:17;;;;;;;31.70;24.10;;;;;;;;;;4939970;29;20052;-74
2022/10/10 10:07:20;;;;;;;30.40;20.88;;;;;;;;;;4939172;29;20048;-74
2022/10/10 10:10:21;;;;;;;31.55;22.23;;;;;;;;;;4939336;29;20043;-74
2022/10/10 10:13:13;;;;;;;34.08;24.10;;;;;;;;;;4939228;29;20044;-75
2022/10/10 10:16:03;;;;;;;36.53;24.35;;;;;;;;;;4939190;29;20047;-75
2022/10/10 10:18:48;;;;;;;31.73;21.70;;;;;;;;;;4939996;29;20048;-75
2022/10/10 10:21:48;;;;;;;31.80;19.25;;;;;;;;;;4938785;29;20394;-73
2022/10/10 10:24:35;;;;;;;26.55;17.73;;;;;;;;;;4945735;29;20035;-74
2022/10/10 10:27:24;;;;;;;22.23;15.45;;;;;;;;;;4939007;29;20472;-74
2022/10/10 10:30:23;;;;;;;28.38;18.73;;;;;;;;;;4945262;29;20044;-74
2022/10/10 10:33:07;;;;;;;26.88;18.42;;;;;;;;;;4938583;29;20043;-74
2022/10/10 10:36:11;;;;;;;24.63;18.42;;;;;;;;;;4938384;29;20478;-74
2022/10/10 10:39:02;;;;;;;28.63;18.83;;;;;;;;;;4939043;29;20052;-73
2022/10/10 10:42:11;;;;;;;30.58;18.20;;;;;;;;;;4938550;29;20044;-75
2022/10/10 10:45:15;;;;;;;30.45;18.17;;;;;;;;;;4944965;29;20048;-75
2022/10/10 10:48:19;;;;;;;24.90;17.33;;;;;;;;;;4938852;29;20056;-74
2022/10/10 10:51:25;;;;;;;26.17;17.02;;;;;;;;;;4938008;29;20051;-75
2022/10/10 10:54:50;;;;;;;29.45;19.25;;;;;;;;;;4945327;29;20039;-75
2022/10/10 10:58:03;;;;;;;26.08;18.73;;;;;;;;;;4944462;29;20059;-74
2022/10/10 11:00:59;;;;;;;32.53;20.40;;;;;;;;;;4934198;29;20040;-74
2022/10/10 11:03:47;;;;;;;31.92;17.25;;;;;;;;;;4944435;29;20040;-75
2022/10/10 11:07:17;;;;;;;22.58;15.07;;;;;;;;;;4938320;29;20501;-74
2022/10/10 11:10:09;;;;;;;27.52;18.13;;;;;;;;;;4842646;29;20045;-75
2022/10/10 11:12:55;;;;;;;23.48;17.27;;;;;;;;;;4848732;29;20057;-73
2022/10/10 11:16:21;;;;;;;30.55;18.30;;;;;;;;;;4928836;29;20051;-73
2022/10/10 11:19:13;;;;;;;26.67;17.23;;;;;;;;;;4944401;29;20473;-74
2022/10/10 11:22:08;;;;;;;29.70;21.35;;;;;;;;;;4938376;29;20044;-75
2022/10/10 11:25:07;;;;;;;28.63;20.38;;;;;;;;;;4943178;29;20051;-74
2022/10/10 11:27:59;;;;;;;28.52;17.00;;;;;;;;;;4938142;29;20044;-75
2022/10/10 11:30:54;;;;;;;23.30;16.67;;;;;;;;;;4937301;29;20048;-76
2022/10/10 11:33:41;;;;;;;;;;;;;;;;;;4938021;29;20405;-73
2022/10/10 11:36:35;;;;;;;27.55;17.75;;;;;;;;;;4938029;29;19915;-75
2022/10/10 11:39:28;;;;;;;20.17;14.52;;;;;;;;;;4942353;29;20051;-74
2022/10/10 11:42:26;;;;;;;33.60;19.98;;;;;;;;;;4944523;29;20040;-75
2022/10/10 11:45:20;;;;;;;27.58;17.77;;;;;;;;;;4936546;29;20051;-75
2022/10/10 11:48:34;;;;;;;26.70;16.20;;;;;;;;;;4944052;29;20051;-75
2022/10/10 11:51:45;;;;;;;24.60;18.90;;;;;;;;;;4936682;29;20060;-75
2022/10/10 11:54:43;;;;;;;27.73;18.23;;;;;;;;;;4934819;29;20052;-74
2022/10/10 11:57:32;;;;;;;25.42;18.95;;;;;;;;;;4937267;29;20048;-75
2022/10/10 12:00:18;;;;;;;25.95;16.15;;;;;;;;;;4936679;29;20406;-73
2022/10/10 12:03:06;;;;;;;24.20;18.08;;;;;;;;;;4937339;29;20052;-73
2022/10/10 12:05:59;;;;;;;22.25;17.10;;;;;;;;;;4937703;29;20047;-74
2022/10/10 12:09:23;;;;;;;20.08;12.60;;;;;;;;;;4936643;29;20482;-74
2022/10/10 12:12:14;;;;;;;22.15;16.70;;;;;;;;;;4937373;29;20055;-73
2022/10/10 12:15:02;;;;;;;23.08;16.90;;;;;;;;;;4936732;29;20055;-75
2022/10/10 12:17:47;;;;;;;25.02;17.50;;;;;;;;;;4943750;29;20043;-74
2022/10/10 12:20:35;;;;;;;22.90;17.92;;;;;;;;;;4937200;29;20052;-74
2022/10/10 12:23:28;;;;;;;23.92;18.38;;;;;;;;;;4936670;29;20047;-76
2022/10/10 12:26:21;;;;;;;25.75;14.43;;;;;;;;;;4937384;29;20048;-75
2022/10/10 12:29:09;;;;;;;29.50;17.77;;;;;;;;;;4942449;29;20401;-75
2022/10/10 12:32:22;;;;;;;26.52;18.25;;;;;;;;;;4937018;29;20060;-76
2022/10/10 12:35:29;;;;;;;31.45;21.35;;;;;;;;;;4937031;29;20043;-76
2022/10/10 12:38:17;;;;;;;25.90;18.90;;;;;;;;;;4936701;29;20063;-74
2022/10/10 12:41:14;;;;;;;28.88;20.20;;;;;;;;;;4936849;29;20039;-75
2022/10/10 12:44:03;;;;;;;25.13;18.63;;;;;;;;;;4936446;29;20048;-73
2022/10/10 12:47:14;;;;;;;24.80;17.88;;;;;;;;;;4936736;29;20044;-75
2022/10/10 12:50:03;;;;;;;20.80;16.23;;;;;;;;;;4932193;29;20044;-75
2022/10/10 12:52:55;;;;;;;24.38;15.57;;;;;;;;;;4935340;29;20478;-74
2022/10/10 12:55:44;;;;;;;27.33;16.17;;;;;;;;;;4931387;29;20044;-74
2022/10/10 12:58:35;;;;;;;23.42;18.73;;;;;;;;;;4935956;29;20051;-74
2022/10/10 13:01:28;;;;;;;22.30;17.13;;;;;;;;;;4936699;29;20052;-74
2022/10/10 13:04:16;;;;;;;23.40;17.25;;;;;;;;;;4935991;29;20040;-74
2022/10/10 13:07:02;;;;;;;18.33;13.05;;;;;;;;;;4941899;29;20043;-74
2022/10/10 13:09:50;;;;;;;23.20;17.42;;;;;;;;;;4936197;29;20048;-74
2022/10/10 13:12:35;;;;;;;24.48;16.77;;;;;;;;;;4928148;29;20051;-75
2022/10/10 13:15:21;;;;;;;20.00;14.80;;;;;;;;;;4936310;29;20047;-74
2022/10/10 13:18:06;;;;;;;26.55;16.92;;;;;;;;;;4935660;29;20047;-75
2022/10/10 13:20:55;;;;;;;19.67;15.10;;;;;;;;;;4942628;29;20055;-74
2022/10/10 13:23:47;;;;;;;23.60;16.20;;;;;;;;;;4936152;29;20043;-75
2022/10/10 13:26:44;;;;;;;25.58;16.73;;;;;;;;;;4935689;29;20055;-75
2022/10/10 13:29:35;;;;;;;24.33;16.60;;;;;;;;;;4936212;29;20044;-75
2022/10/10 13:32:25;;;;;;;21.20;16.10;;;;;;;;;;4942023;29;20048;-75
2022/10/10 13:35:24;;;;;;;23.23;15.98;;;;;;;;;;4942324;29;20482;-74
2022/10/10 13:38:13;;;;;;;19.50;14.65;;;;;;;;;;4942471;29;20052;-74
2022/10/10 13:41:01;;;;;;;21.27;15.40;;;;;;;;;;4941658;29;20048;-74
2022/10/10 13:43:49;;;;;;;20.08;14.27;;;;;;;;;;4935839;29;20048;-74
2022/10/10 13:46:34;;;;;;;14.35;10.35;;;;;;;;;;4941732;29;20051;-74
2022/10/10 13:49:26;;;;;;;21.30;15.05;;;;;;;;;;4941905;29;20470;-74
2022/10/10 13:52:21;;;;;;;23.92;15.73;;;;;;;;;;4935561;29;20044;-74
2022/10/10 13:55:24;;;;;;;25.95;18.52;;;;;;;;;;4941657;29;20044;-74
2022/10/10 13:58:09;;;;;;;20.80;15.52;;;;;;;;;;4935564;29;20044;-74
2022/10/10 14:00:57;;;;;;;22.33;15.80;;;;;;;;;;4935163;29;20040;-73
2022/10/10 14:03:46;;;;;;;26.15;16.42;;;;;;;;;;4941740;29;20052;-73
2022/10/10 14:06:31;;;;;;;24.83;17.73;;;;;;;;;;4934890;29;20048;-74
2022/10/10 14:09:36;;;;;;;27.60;17.50;;;;;;;;;;4941016;29;20485;-75
2022/10/10 14:12:51;;;;;;;24.00;16.98;;;;;;;;;;4941795;29;20044;-76
2022/10/10 14:15:40;;;;;;;24.50;16.10;;;;;;;;;;4934710;29;20055;-75
2022/10/10 14:18:25;;;;;;;23.15;17.13;;;;;;;;;;4936774;29;20401;-74
2022/10/10 14:21:11;;;;;;;24.77;16.90;;;;;;;;;;4939114;29;20044;-75
2022/10/10 14:23:57;;;;;;;22.85;17.20;;;;;;;;;;4944353;29;20047;-75
2022/10/10 14:26:43;;;;;;;26.33;16.33;;;;;;;;;;4945243;29;20047;-74
2022/10/10 14:29:28;;;;;;;21.15;16.17;;;;;;;;;;4939155;29;20044;-74
2022/10/10 14:32:15;;;;;;;23.63;16.13;;;;;;;;;;4939005;29;20485;-77
2022/10/10 14:35:01;;;;;;;23.45;15.77;;;;;;;;;;4939024;29;20044;-76
2022/10/10 14:37:46;;;;;;;30.80;18.58;;;;;;;;;;4938488;29;20051;-74
2022/10/10 14:40:33;;;;;;;20.80;14.93;;;;;;;;;;4945366;29;20485;-76
2022/10/10 14:43:23;;;;;;;26.45;18.45;;;;;;;;;;4944980;29;20047;-75
2022/10/10 14:46:18;;;;;;;30.05;19.00;;;;;;;;;;4944762;29;20051;-78
2022/10/10 14:49:05;;;;;;;24.23;15.35;;;;;;;;;;4938594;29;20056;-73
2022/10/10 14:51:50;;;;;;;21.67;16.48;;;;;;;;;;4937706;29;20405;-74
2022/10/10 14:54:36;;;;;;;26.80;17.10;;;;;;;;;;4937929;29;20040;-77
2022/10/10 14:57:21;;;;;;;45.00;30.10;;;;;;;;;;4944973;29;20047;-74
2022/10/10 15:00:16;;;;;;;49.40;31.80;;;;;;;;;;4944692;29;20059;-74
2022/10/10 15:03:01;;;;;;;52.83;30.90;;;;;;;;;;4938441;29;20044;-73
2022/10/10 15:05:47;;;;;;;24.33;17.08;;;;;;;;;;4944354;29;20055;-76
2022/10/10 15:08:32;;;;;;;40.55;22.80;;;;;;;;;;4938069;29;20390;-74
2022/10/10 15:11:18;;;;;;;36.55;24.02;;;;;;;;;;4937906;29;20043;-75
2022/10/10 15:14:04;;;;;;;27.48;16.65;;;;;;;;;;4937730;29;20051;-75
2022/10/10 15:16:51;;;;;;;29.00;19.45;;;;;;;;;;4938296;29;20402;-75
2022/10/10 15:19:37;;;;;;;24.38;14.25;;;;;;;;;;4936238;29;20051;-75
2022/10/10 15:22:22;;;;;;;28.63;15.20;;;;;;;;;;4938289;29;20052;-75
2022/10/10 15:25:08;;;;;;;24.02;14.35;;;;;;;;;;4938529;29;20044;-75
2022/10/10 15:27:55;;;;;;;26.15;16.55;;;;;;;;;;4937513;29;20044;-72
2022/10/10 15:30:44;;;;;;;26.45;15.18;;;;;;;;;;4936954;29;20040;-73
2022/10/10 15:33:29;;;;;;;29.48;15.13;;;;;;;;;;4937227;29;20044;-73
2022/10/10 15:36:13;;;;;;;22.75;14.00;;;;;;;;;;4937674;29;20048;-76
2022/10/10 15:38:59;;;;;;;21.83;15.20;;;;;;;;;;4937950;29;20052;-76
2022/10/10 15:41:44;;;;;;;25.27;15.35;;;;;;;;;;4937342;29;20118;-76
2022/10/10 15:44:30;;;;;;;22.45;14.43;;;;;;;;;;4937662;29;20482;-75
2022/10/10 15:47:17;;;;;;;28.88;15.70;;;;;;;;;;4936522;29;20056;-75
2022/10/10 15:50:03;;;;;;;20.63;13.50;;;;;;;;;;4941196;29;20052;-76
2022/10/10 15:52:48;;;;;;;22.80;12.43;;;;;;;;;;4937564;29;20048;-76
2022/10/10 15:55:48;;;;;;;19.95;10.50;;;;;;;;;;4937324;29;20412;-74
2022/10/10 15:58:39;;;;;;;24.13;14.18;;;;;;;;;;4937473;29;20043;-75
2022/10/10 16:01:28;;;;;;;25.73;14.90;;;;;;;;;;4942189;29;20055;-73
2022/10/10 16:04:13;;;;;;;20.90;12.70;;;;;;;;;;4942030;29;20048;-73
2022/10/10 16:06:59;;;;;;;24.08;13.55;;;;;;;;;;4936685;29;20047;-75
2022/10/10 16:09:44;;;;;;;38.40;18.40;;;;;;;;;;4936224;29;20413;-75
2022/10/10 16:12:30;;;;;;;23.75;12.95;;;;;;;;;;4937150;29;20490;-76
2022/10/10 16:15:15;;;;;;;23.13;13.52;;;;;;;;;;4944013;29;20048;-76
2022/10/10 16:18:01;;;;;;;20.23;12.32;;;;;;;;;;4936772;29;20039;-74
2022/10/10 16:20:47;;;;;;;16.90;10.75;;;;;;;;;;4936750;29;20052;-75
2022/10/10 16:23:33;;;;;;;28.02;14.88;;;;;;;;;;4943153;29;20047;-74
2022/10/10 16:26:25;;;;;;;18.38;11.48;;;;;;;;;;4936954;29;20406;-74
2022/10/10 16:29:11;;;;;;;17.23;11.55;;;;;;;;;;4937266;29;20047;-74